createdAt,value
2018-11-13T00:00:45.809Z,25.70
2018-11-13T00:01:18.533Z,24.80
2018-11-13T00:01:51.209Z,25.77
2018-11-13T00:02:23.882Z,25.60
2018-11-13T00:02:56.871Z,25.43
2018-11-13T00:03:29.548Z,24.43
2018-11-13T00:04:02.222Z,25.52
2018-11-13T00:04:34.898Z,24.90
2018-11-13T00:05:07.577Z,25.80
2018-11-13T00:05:40.246Z,24.47
2018-11-13T00:06:12.962Z,25.35
2018-11-13T00:06:45.639Z,24.75
2018-11-13T00:07:18.341Z,25.08
2018-11-13T00:08:50.715Z,24.52
2018-11-13T00:09:23.376Z,24.80
2018-11-13T00:09:56.033Z,24.98
2018-11-13T00:10:28.707Z,25.15
2018-11-13T00:11:01.366Z,24.63
2018-11-13T00:11:34.084Z,25.75
2018-11-13T00:12:06.701Z,25.05
2018-11-13T00:12:39.758Z,24.85
2018-11-13T00:13:12.427Z,25.12
2018-11-13T00:13:45.089Z,24.18
2018-11-13T00:14:17.741Z,24.70
2018-11-13T00:14:50.415Z,25.08
2018-11-13T00:15:23.228Z,25.17
2018-11-13T00:15:55.916Z,23.70
2018-11-13T00:16:28.578Z,24.70
2018-11-13T00:17:01.271Z,24.00
2018-11-13T00:17:34.055Z,24.43
2018-11-13T00:18:06.725Z,24.82
2018-11-13T00:18:39.393Z,25.15
2018-11-13T00:19:12.055Z,25.00
2018-11-13T00:19:44.795Z,24.35
2018-11-13T00:20:18.180Z,24.75
2018-11-13T00:20:50.824Z,24.35
2018-11-13T00:21:23.465Z,25.40
2018-11-13T00:21:56.113Z,25.52
2018-11-13T00:22:28.942Z,25.17
2018-11-13T00:23:01.609Z,24.85
2018-11-13T00:23:34.239Z,24.67
2018-11-13T00:24:07.116Z,24.67
2018-11-13T00:24:39.599Z,24.37
2018-11-13T00:25:13.440Z,24.37
2018-11-13T00:25:46.120Z,24.87
2018-11-13T00:26:19.006Z,24.75
2018-11-13T00:26:51.755Z,24.85
2018-11-13T00:27:24.541Z,24.67
2018-11-13T00:27:57.159Z,25.08
2018-11-13T00:28:29.908Z,24.37
2018-11-13T00:29:02.565Z,24.40
2018-11-13T00:29:35.590Z,24.57
2018-11-13T00:30:10.367Z,24.32
2018-11-13T00:30:43.019Z,24.45
2018-11-13T00:31:15.695Z,26.35
2018-11-13T00:31:48.388Z,24.18
2018-11-13T00:32:21.248Z,24.60
2018-11-13T00:32:53.966Z,24.10
2018-11-13T00:33:26.615Z,24.30
2018-11-13T00:33:59.294Z,24.10
2018-11-13T00:34:31.977Z,24.10
2018-11-13T00:35:04.640Z,24.57
2018-11-13T00:35:37.279Z,24.60
2018-11-13T00:36:09.950Z,25.65
2018-11-13T00:36:42.791Z,24.82
2018-11-13T00:37:15.441Z,24.65
2018-11-13T00:37:48.738Z,24.50
2018-11-13T00:38:21.406Z,24.52
2018-11-13T00:38:54.071Z,24.12
2018-11-13T00:39:26.731Z,23.98
2018-11-13T00:39:59.396Z,25.23
2018-11-13T00:40:32.066Z,24.85
2018-11-13T00:41:05.481Z,24.32
2018-11-13T00:41:38.142Z,24.77
2018-11-13T00:42:10.888Z,25.23
2018-11-13T00:42:44.463Z,24.70
2018-11-13T00:43:17.150Z,24.27
2018-11-13T00:43:49.800Z,24.15
2018-11-13T00:44:22.466Z,23.73
2018-11-13T00:44:55.132Z,24.02
2018-11-13T00:45:27.919Z,24.32
2018-11-13T00:46:00.607Z,24.32
2018-11-13T00:46:33.181Z,25.27
2018-11-13T00:47:05.875Z,23.83
2018-11-13T00:47:38.527Z,24.27
2018-11-13T00:48:11.754Z,24.02
2018-11-13T00:48:44.606Z,24.90
2018-11-13T00:49:17.283Z,24.10
2018-11-13T00:49:49.940Z,24.67
2018-11-13T00:50:22.611Z,24.80
2018-11-13T00:50:55.659Z,24.50
2018-11-13T00:51:28.007Z,24.80
2018-11-13T00:52:00.663Z,25.15
2018-11-13T00:52:33.322Z,25.15
2018-11-13T00:53:06.003Z,25.62
2018-11-13T00:53:38.668Z,24.90
2018-11-13T00:54:11.411Z,27.05
2018-11-13T00:54:44.162Z,25.00
2018-11-13T00:55:16.926Z,24.72
2018-11-13T00:55:49.604Z,25.15
2018-11-13T00:56:22.267Z,24.63
2018-11-13T00:56:54.948Z,25.27
2018-11-13T00:57:27.608Z,24.90
2018-11-13T00:58:00.251Z,25.35
2018-11-13T00:58:32.933Z,25.45
2018-11-13T00:59:05.612Z,25.85
2018-11-13T00:59:38.264Z,25.68
2018-11-13T01:00:14.948Z,25.23
2018-11-13T01:00:47.656Z,24.90
2018-11-13T01:01:20.297Z,26.73
2018-11-13T01:01:52.998Z,25.20
2018-11-13T01:02:25.644Z,26.10
2018-11-13T01:02:58.498Z,26.17
2018-11-13T01:03:30.980Z,26.00
2018-11-13T01:04:03.676Z,25.27
2018-11-13T01:04:36.359Z,25.45
2018-11-13T01:05:11.005Z,25.35
2018-11-13T01:05:43.636Z,25.85
2018-11-13T01:06:16.314Z,24.82
2018-11-13T01:06:48.986Z,25.23
2018-11-13T01:07:21.653Z,25.32
2018-11-13T01:07:54.310Z,25.82
2018-11-13T01:08:27.070Z,24.52
2018-11-13T01:08:59.757Z,24.95
2018-11-13T01:09:32.441Z,25.85
2018-11-13T01:10:06.335Z,25.30
2018-11-13T01:10:38.985Z,25.40
2018-11-13T01:11:11.619Z,26.68
2018-11-13T01:11:44.358Z,25.60
2018-11-13T01:12:16.947Z,25.70
2018-11-13T01:12:49.651Z,25.37
2018-11-13T01:13:22.359Z,25.57
2018-11-13T01:13:54.974Z,25.57
2018-11-13T01:14:27.635Z,26.80
2018-11-13T01:15:00.374Z,25.30
2018-11-13T01:15:33.007Z,24.80
2018-11-13T01:16:05.685Z,25.57
2018-11-13T01:16:38.342Z,25.15
2018-11-13T01:17:11.302Z,26.20
2018-11-13T01:17:44.695Z,25.65
2018-11-13T01:18:17.363Z,25.72
2018-11-13T01:18:50.029Z,25.40
2018-11-13T01:19:22.694Z,24.35
2018-11-13T01:19:55.355Z,26.93
2018-11-13T01:20:28.007Z,24.10
2018-11-13T01:21:00.663Z,25.17
2018-11-13T01:21:33.332Z,25.12
2018-11-13T01:22:06.857Z,24.02
2018-11-13T01:22:39.501Z,26.17
2018-11-13T01:23:12.173Z,23.95
2018-11-13T01:23:44.842Z,24.77
2018-11-13T01:24:17.964Z,24.95
2018-11-13T01:24:50.193Z,24.75
2018-11-13T01:25:24.266Z,24.27
2018-11-13T01:25:56.944Z,25.45
2018-11-13T01:26:29.580Z,24.82
2018-11-13T01:27:02.265Z,27.05
2018-11-13T01:27:34.913Z,24.77
2018-11-13T01:28:07.603Z,24.98
2018-11-13T01:28:40.237Z,24.98
2018-11-13T01:29:12.921Z,25.08
2018-11-13T01:29:51.180Z,25.55
2018-11-13T01:30:23.857Z,24.15
2018-11-13T01:30:56.521Z,25.80
2018-11-13T01:31:29.155Z,25.00
2018-11-13T01:32:01.879Z,24.80
2018-11-13T01:32:34.568Z,24.98
2018-11-13T01:33:07.237Z,25.52
2018-11-13T01:33:39.879Z,24.82
2018-11-13T01:34:12.549Z,25.23
2018-11-13T01:34:45.217Z,24.47
2018-11-13T01:35:18.499Z,25.10
2018-11-13T01:35:51.193Z,23.75
2018-11-13T01:36:23.856Z,24.35
2018-11-13T01:36:56.543Z,25.00
2018-11-13T01:37:29.237Z,25.45
2018-11-13T01:38:01.901Z,25.12
2018-11-13T01:38:34.561Z,25.10
2018-11-13T01:39:08.697Z,24.37
2018-11-13T01:39:41.361Z,25.68
2018-11-13T01:40:15.561Z,24.30
2018-11-13T01:40:48.231Z,24.02
2018-11-13T01:41:20.880Z,23.30
2018-11-13T01:41:53.557Z,24.35
2018-11-13T01:42:26.209Z,24.45
2018-11-13T01:42:58.914Z,26.15
2018-11-13T01:43:31.567Z,24.47
2018-11-13T01:44:04.353Z,25.17
2018-11-13T01:44:37.035Z,24.90
2018-11-13T01:45:12.027Z,24.37
2018-11-13T01:45:44.683Z,24.82
2018-11-13T01:46:17.347Z,24.57
2018-11-13T01:46:50.011Z,24.50
2018-11-13T01:47:22.679Z,24.35
2018-11-13T01:47:55.315Z,24.63
2018-11-13T01:48:28.041Z,24.77
2018-11-13T01:49:00.695Z,24.27
2018-11-13T01:49:33.422Z,25.02
2018-11-13T01:50:06.455Z,24.47
2018-11-13T01:50:39.123Z,25.00
2018-11-13T01:51:11.786Z,25.48
2018-11-13T01:51:44.503Z,25.27
2018-11-13T01:52:17.163Z,24.92
2018-11-13T01:52:49.822Z,23.77
2018-11-13T01:53:22.483Z,25.48
2018-11-13T01:53:55.158Z,24.43
2018-11-13T01:54:27.885Z,23.83
2018-11-13T01:55:00.482Z,24.00
2018-11-13T01:55:33.143Z,25.08
2018-11-13T01:56:05.947Z,23.80
2018-11-13T01:56:38.705Z,24.77
2018-11-13T01:57:11.379Z,24.35
2018-11-13T01:57:44.040Z,24.87
2018-11-13T01:58:16.677Z,24.52
2018-11-13T01:58:49.375Z,24.07
2018-11-13T01:59:22.277Z,24.45
2018-11-13T01:59:54.913Z,24.55
2018-11-13T02:00:27.645Z,23.92
2018-11-13T02:01:00.297Z,24.72
2018-11-13T02:01:32.969Z,25.12
2018-11-13T02:02:05.702Z,24.27
2018-11-13T02:02:38.385Z,24.40
2018-11-13T02:03:11.062Z,24.47
2018-11-13T02:03:43.695Z,24.32
2018-11-13T02:04:16.370Z,24.30
2018-11-13T02:04:49.163Z,24.47
2018-11-13T02:05:23.009Z,23.52
2018-11-13T02:05:55.710Z,24.52
2018-11-13T02:06:28.374Z,24.47
2018-11-13T02:07:01.061Z,24.92
2018-11-13T02:07:33.709Z,24.65
2018-11-13T02:08:06.391Z,24.27
2018-11-13T02:08:39.045Z,24.50
2018-11-13T02:09:11.729Z,24.18
2018-11-13T02:09:44.364Z,24.02
2018-11-13T02:10:17.533Z,24.43
2018-11-13T02:10:50.188Z,23.80
2018-11-13T02:11:22.975Z,24.52
2018-11-13T02:11:55.655Z,25.20
2018-11-13T02:12:28.289Z,23.87
2018-11-13T02:13:00.955Z,25.30
2018-11-13T02:13:33.597Z,24.87
2018-11-13T02:14:06.267Z,24.02
2018-11-13T02:14:39.051Z,24.75
2018-11-13T02:15:11.731Z,24.00
2018-11-13T02:15:44.397Z,24.25
2018-11-13T02:16:17.067Z,24.15
2018-11-13T02:16:49.923Z,24.77
2018-11-13T02:17:22.558Z,24.25
2018-11-13T02:17:55.237Z,23.62
2018-11-13T02:18:27.883Z,23.80
2018-11-13T02:19:00.564Z,23.92
2018-11-13T02:19:33.283Z,23.92
2018-11-13T02:20:07.667Z,23.83
2018-11-13T02:20:40.346Z,23.83
2018-11-13T02:21:12.993Z,23.27
2018-11-13T02:21:45.674Z,23.57
2018-11-13T02:22:18.343Z,23.42
2018-11-13T02:22:51.032Z,23.45
2018-11-13T02:23:23.727Z,24.00
2018-11-13T02:23:56.515Z,23.57
2018-11-13T02:24:29.171Z,23.60
2018-11-13T02:25:01.875Z,23.50
2018-11-13T02:25:34.617Z,23.80
2018-11-13T02:26:07.299Z,23.75
2018-11-13T02:26:39.971Z,23.52
2018-11-13T02:27:12.628Z,23.30
2018-11-13T02:27:45.798Z,23.42
2018-11-13T02:28:18.451Z,23.07
2018-11-13T02:28:51.130Z,23.27
2018-11-13T02:29:23.827Z,23.18
2018-11-13T02:29:56.483Z,23.22
2018-11-13T02:30:29.143Z,23.60
2018-11-13T02:31:01.815Z,24.80
2018-11-13T02:31:34.712Z,22.85
2018-11-13T02:32:07.367Z,23.42
2018-11-13T02:32:40.527Z,23.32
2018-11-13T02:33:13.180Z,23.30
2018-11-13T02:33:45.830Z,23.50
2018-11-13T02:34:18.569Z,23.35
2018-11-13T02:34:51.215Z,23.47
2018-11-13T02:35:23.963Z,23.18
2018-11-13T02:35:56.556Z,23.83
2018-11-13T02:36:29.199Z,23.77
2018-11-13T02:37:01.848Z,23.12
2018-11-13T02:37:34.591Z,23.07
2018-11-13T02:38:07.276Z,22.95
2018-11-13T02:38:39.923Z,23.20
2018-11-13T02:39:12.584Z,23.05
2018-11-13T02:39:45.240Z,22.60
2018-11-13T02:40:17.929Z,23.47
2018-11-13T02:40:50.587Z,22.58
2018-11-13T02:41:23.223Z,22.98
2018-11-13T02:41:55.915Z,23.30
2018-11-13T02:42:28.577Z,23.77
2018-11-13T02:43:01.232Z,23.22
2018-11-13T02:43:33.895Z,23.22
2018-11-13T02:44:06.882Z,27.75
2018-11-13T02:44:39.531Z,23.05
2018-11-13T02:45:13.983Z,23.30
2018-11-13T02:45:46.680Z,24.00
2018-11-13T02:46:19.343Z,23.27
2018-11-13T02:46:52.038Z,23.30
2018-11-13T02:47:24.700Z,23.95
2018-11-13T02:47:57.365Z,24.02
2018-11-13T02:48:30.167Z,23.80
2018-11-13T02:49:02.896Z,22.67
2018-11-13T02:49:35.590Z,24.12
2018-11-13T02:50:09.747Z,24.52
2018-11-13T02:50:42.399Z,23.18
2018-11-13T02:51:15.045Z,23.98
2018-11-13T02:51:47.703Z,23.80
2018-11-13T02:52:20.387Z,23.57
2018-11-13T02:52:53.066Z,24.40
2018-11-13T02:53:25.688Z,23.73
2018-11-13T02:53:58.368Z,23.92
2018-11-13T02:54:31.026Z,23.83
2018-11-13T02:55:03.799Z,23.55
2018-11-13T02:55:36.447Z,24.65
2018-11-13T02:56:09.108Z,24.10
2018-11-13T02:56:41.756Z,25.77
2018-11-13T02:57:14.442Z,24.10
2018-11-13T02:57:47.094Z,24.55
2018-11-13T02:58:19.751Z,23.62
2018-11-13T02:58:52.408Z,24.20
2018-11-13T02:59:25.078Z,24.07
2018-11-13T02:59:57.732Z,28.07
2018-11-13T03:00:30.375Z,25.35
2018-11-13T03:01:03.061Z,23.38
2018-11-13T03:01:35.742Z,25.60
2018-11-13T03:02:08.423Z,24.80
2018-11-13T03:02:41.244Z,23.98
2018-11-13T03:03:13.884Z,24.75
2018-11-13T03:03:46.534Z,24.07
2018-11-13T03:04:19.207Z,24.50
2018-11-13T03:04:51.842Z,24.63
2018-11-13T03:05:24.533Z,23.95
2018-11-13T03:05:57.198Z,22.87
2018-11-13T03:06:29.909Z,23.92
2018-11-13T03:07:02.585Z,24.02
2018-11-13T03:07:35.289Z,24.72
2018-11-13T03:08:07.953Z,24.25
2018-11-13T03:08:40.601Z,25.35
2018-11-13T03:09:13.255Z,24.02
2018-11-13T03:09:45.940Z,23.57
2018-11-13T03:10:19.285Z,23.85
2018-11-13T03:10:51.951Z,23.15
2018-11-13T03:11:24.629Z,24.63
2018-11-13T03:11:57.327Z,23.47
2018-11-13T03:12:30.003Z,22.93
2018-11-13T03:13:02.649Z,23.22
2018-11-13T03:13:35.402Z,23.10
2018-11-13T03:14:08.054Z,24.47
2018-11-13T03:14:40.692Z,23.87
2018-11-13T03:15:14.396Z,24.57
2018-11-13T03:15:47.049Z,23.80
2018-11-13T03:16:19.691Z,22.55
2018-11-13T03:16:52.373Z,22.48
2018-11-13T03:17:25.042Z,23.18
2018-11-13T03:17:57.730Z,23.57
2018-11-13T03:18:30.399Z,24.40
2018-11-13T03:19:03.084Z,24.65
2018-11-13T03:19:35.788Z,23.70
2018-11-13T03:20:10.638Z,23.42
2018-11-13T03:20:43.315Z,22.87
2018-11-13T03:21:15.983Z,23.50
2018-11-13T03:21:48.644Z,23.07
2018-11-13T03:22:21.321Z,30.70
2018-11-13T03:22:53.971Z,24.02
2018-11-13T03:23:26.689Z,22.80
2018-11-13T03:23:59.333Z,24.02
2018-11-13T03:24:32.002Z,23.42
2018-11-13T03:25:06.974Z,22.93
2018-11-13T03:25:39.626Z,23.55
2018-11-13T03:26:12.316Z,22.90
2018-11-13T03:26:44.998Z,25.15
2018-11-13T03:27:17.657Z,25.23
2018-11-13T03:27:50.306Z,23.65
2018-11-13T03:28:22.967Z,23.98
2018-11-13T03:28:55.606Z,23.25
2018-11-13T03:29:28.264Z,23.25
2018-11-13T03:30:00.910Z,23.60
2018-11-13T03:30:33.572Z,23.98
2018-11-13T03:31:06.277Z,24.15
2018-11-13T03:31:39.081Z,23.38
2018-11-13T03:32:11.668Z,23.65
2018-11-13T03:32:44.637Z,23.90
2018-11-13T03:33:17.308Z,24.15
2018-11-13T03:33:49.970Z,23.60
2018-11-13T03:34:22.618Z,23.63
2018-11-13T03:34:55.292Z,23.60
2018-11-13T03:35:27.958Z,26.23
2018-11-13T03:36:00.627Z,23.27
2018-11-13T03:36:33.308Z,23.80
2018-11-13T03:37:05.976Z,24.80
2018-11-13T03:37:38.640Z,24.90
2018-11-13T03:38:11.315Z,25.60
2018-11-13T03:38:43.955Z,23.77
2018-11-13T03:39:16.611Z,23.25
2018-11-13T03:39:49.282Z,23.77
2018-11-13T03:40:21.972Z,23.95
2018-11-13T03:40:54.621Z,24.55
2018-11-13T03:41:27.350Z,22.52
2018-11-13T03:42:00.038Z,23.18
2018-11-13T03:42:32.718Z,24.67
2018-11-13T03:43:05.438Z,23.22
2018-11-13T03:43:38.114Z,23.38
2018-11-13T03:44:10.816Z,24.57
2018-11-13T03:44:43.526Z,27.45
2018-11-13T03:45:16.675Z,23.98
2018-11-13T03:45:49.349Z,26.68
2018-11-13T03:46:22.024Z,25.00
2018-11-13T03:46:54.708Z,24.07
2018-11-13T03:47:27.385Z,26.27
2018-11-13T03:48:00.033Z,23.77
2018-11-13T03:48:33.047Z,24.20
2018-11-13T03:49:05.979Z,24.72
2018-11-13T03:49:38.673Z,24.50
2018-11-13T03:50:14.222Z,23.67
2018-11-13T03:50:46.914Z,23.60
2018-11-13T03:51:19.576Z,23.38
2018-11-13T03:51:52.235Z,25.62
2018-11-13T03:52:24.902Z,25.43
2018-11-13T03:52:57.630Z,25.37
2018-11-13T03:53:30.260Z,26.23
2018-11-13T03:54:02.942Z,23.83
2018-11-13T03:54:35.596Z,24.43
2018-11-13T03:55:09.148Z,23.73
2018-11-13T03:55:41.805Z,23.95
2018-11-13T03:56:14.468Z,24.05
2018-11-13T03:56:47.242Z,24.45
2018-11-13T03:57:19.880Z,25.52
2018-11-13T03:57:52.553Z,25.17
2018-11-13T03:58:25.224Z,24.65
2018-11-13T03:58:58.212Z,23.70
2018-11-13T03:59:30.922Z,24.23
2018-11-13T04:00:03.971Z,25.20
2018-11-13T04:00:36.650Z,25.32
2018-11-13T04:01:09.317Z,24.05
2018-11-13T04:01:41.962Z,24.20
2018-11-13T04:02:14.622Z,23.60
2018-11-13T04:02:47.316Z,26.27
2018-11-13T04:03:19.982Z,24.35
2018-11-13T04:03:52.664Z,26.85
2018-11-13T04:04:25.327Z,26.55
2018-11-13T04:04:57.978Z,24.45
2018-11-13T04:05:30.630Z,24.25
2018-11-13T04:06:03.335Z,27.45
2018-11-13T04:06:36.009Z,26.42
2018-11-13T04:07:08.754Z,31.35
2018-11-13T04:07:42.802Z,24.65
2018-11-13T04:08:15.470Z,25.27
2018-11-13T04:08:48.102Z,26.23
2018-11-13T04:09:20.786Z,24.43
2018-11-13T04:09:53.442Z,24.72
2018-11-13T04:10:26.160Z,24.72
2018-11-13T04:10:58.815Z,28.60
2018-11-13T04:11:31.482Z,26.27
2018-11-13T04:12:04.190Z,24.80
2018-11-13T04:12:37.013Z,26.05
2018-11-13T04:13:09.667Z,26.37
2018-11-13T04:13:42.370Z,25.25
2018-11-13T04:14:15.045Z,26.07
2018-11-13T04:14:47.703Z,30.08
2018-11-13T04:15:22.335Z,25.88
2018-11-13T04:15:54.987Z,25.60
2018-11-13T04:16:27.651Z,26.82
2018-11-13T04:17:00.314Z,27.98
2018-11-13T04:17:33.044Z,28.10
2018-11-13T04:18:05.963Z,28.25
2018-11-13T04:18:38.621Z,25.30
2018-11-13T04:19:11.301Z,25.97
2018-11-13T04:19:43.982Z,25.62
2018-11-13T04:20:17.815Z,27.65
2018-11-13T04:20:50.463Z,28.12
2018-11-13T04:21:23.127Z,27.85
2018-11-13T04:22:02.497Z,25.50
2018-11-13T04:22:35.186Z,27.32
2018-11-13T04:23:07.863Z,26.10
2018-11-13T04:23:40.505Z,29.20
2018-11-13T04:24:13.162Z,28.47
2018-11-13T04:24:45.843Z,28.90
2018-11-13T04:25:18.527Z,30.12
2018-11-13T04:25:51.157Z,25.57
2018-11-13T04:26:24.089Z,25.77
2018-11-13T04:26:56.871Z,25.72
2018-11-13T04:27:29.527Z,28.50
2018-11-13T04:28:02.182Z,29.82
2018-11-13T04:28:34.852Z,26.17
2018-11-13T04:29:07.523Z,28.47
2018-11-13T04:29:40.249Z,30.48
2018-11-13T04:30:14.505Z,25.68
2018-11-13T04:30:47.182Z,29.72
2018-11-13T04:31:19.820Z,29.77
2018-11-13T04:31:52.517Z,30.20
2018-11-13T04:32:25.191Z,28.80
2018-11-13T04:32:57.819Z,29.50
2018-11-13T04:33:30.463Z,27.60
2018-11-13T04:34:03.118Z,29.10
2018-11-13T04:34:35.763Z,31.25
2018-11-13T04:35:09.935Z,26.90
2018-11-13T04:35:42.601Z,31.52
2018-11-13T04:36:15.251Z,30.32
2018-11-13T04:36:47.948Z,30.00
2018-11-13T04:37:20.619Z,30.97
2018-11-13T04:37:53.299Z,27.65
2018-11-13T04:38:25.938Z,27.00
2018-11-13T04:38:58.594Z,30.72
2018-11-13T04:39:31.256Z,30.75
2018-11-13T04:40:06.735Z,28.42
2018-11-13T04:40:39.399Z,34.50
2018-11-13T04:41:12.065Z,33.18
2018-11-13T04:41:44.741Z,29.92
2018-11-13T04:42:17.375Z,30.02
2018-11-13T04:42:52.085Z,31.68
2018-11-13T04:43:24.776Z,31.90
2018-11-13T04:43:57.443Z,32.00
2018-11-13T04:44:30.100Z,29.87
2018-11-13T04:45:02.771Z,31.87
2018-11-13T04:45:35.406Z,32.25
2018-11-13T04:46:08.045Z,29.80
2018-11-13T04:46:40.705Z,32.17
2018-11-13T04:47:13.377Z,31.80
2018-11-13T04:47:46.995Z,30.43
2018-11-13T04:48:19.638Z,33.53
2018-11-13T04:48:52.315Z,27.42
2018-11-13T04:49:24.989Z,29.30
2018-11-13T04:49:57.662Z,29.60
2018-11-13T04:50:30.374Z,26.80
2018-11-13T04:51:03.004Z,27.75
2018-11-13T04:51:35.699Z,29.98
2018-11-13T04:52:08.376Z,26.57
2018-11-13T04:52:41.279Z,27.32
2018-11-13T04:53:13.940Z,31.62
2018-11-13T04:53:46.615Z,30.23
2018-11-13T04:54:19.335Z,31.10
2018-11-13T04:54:51.961Z,30.02
2018-11-13T04:55:24.667Z,29.77
2018-11-13T04:55:57.304Z,28.87
2018-11-13T04:56:30.013Z,28.73
2018-11-13T05:00:05.708Z,33.88
2018-11-13T05:00:38.391Z,29.87
2018-11-13T05:01:11.108Z,30.52
2018-11-13T05:01:43.761Z,28.38
2018-11-13T05:02:16.443Z,29.18
2018-11-13T05:02:49.127Z,31.75
2018-11-13T05:03:21.788Z,29.77
2018-11-13T05:03:54.488Z,31.52
2018-11-13T05:04:27.154Z,29.48
2018-11-13T05:04:59.838Z,33.53
2018-11-13T05:05:32.484Z,29.48
2018-11-13T05:06:05.138Z,27.32
2018-11-13T05:06:37.796Z,30.82
2018-11-13T05:07:10.446Z,33.98
2018-11-13T05:07:46.116Z,32.00
2018-11-13T05:08:18.776Z,27.82
2018-11-13T05:08:51.438Z,30.80
2018-11-13T05:09:24.079Z,30.57
2018-11-13T05:09:56.805Z,30.43
2018-11-13T05:10:29.418Z,33.65
2018-11-13T05:11:02.098Z,34.27
2018-11-13T05:11:34.772Z,34.30
2018-11-13T05:12:07.430Z,32.33
2018-11-13T05:12:41.237Z,30.52
2018-11-13T05:13:13.879Z,31.70
2018-11-13T05:13:46.532Z,31.00
2018-11-13T05:14:19.185Z,33.88
2018-11-13T05:14:51.928Z,31.25
2018-11-13T05:15:24.605Z,33.83
2018-11-13T05:15:57.268Z,35.10
2018-11-13T05:16:29.912Z,36.10
2018-11-13T05:17:02.616Z,33.18
2018-11-13T05:17:35.262Z,34.43
2018-11-13T05:18:07.930Z,35.08
2018-11-13T05:18:40.585Z,33.58
2018-11-13T05:19:13.244Z,33.60
2018-11-13T05:19:45.898Z,33.33
2018-11-13T05:20:18.612Z,34.92
2018-11-13T05:20:51.272Z,33.48
2018-11-13T05:21:23.934Z,31.42
2018-11-13T05:21:56.591Z,31.70
2018-11-13T05:22:29.268Z,36.68
2018-11-13T05:23:01.929Z,33.55
2018-11-13T05:23:34.644Z,35.20
2018-11-13T05:24:07.280Z,34.73
2018-11-13T05:24:39.937Z,34.95
2018-11-13T05:25:14.303Z,34.83
2018-11-13T05:25:46.960Z,39.05
2018-11-13T05:26:19.626Z,37.28
2018-11-13T05:26:52.304Z,37.00
2018-11-13T05:27:24.970Z,34.92
2018-11-13T05:27:57.616Z,38.90
2018-11-13T05:28:30.280Z,34.50
2018-11-13T05:29:02.912Z,39.88
2018-11-13T05:29:35.576Z,40.75
2018-11-13T05:30:10.393Z,39.27
2018-11-13T05:30:43.061Z,36.33
2018-11-13T05:31:15.768Z,41.45
2018-11-13T05:31:48.462Z,39.03
2018-11-13T05:32:21.129Z,38.23
2018-11-13T05:32:53.790Z,39.03
2018-11-13T05:33:26.541Z,38.05
2018-11-13T05:33:59.224Z,37.30
2018-11-13T05:34:31.878Z,39.35
2018-11-13T05:35:05.415Z,35.00
2018-11-13T05:35:38.120Z,40.15
2018-11-13T05:36:10.766Z,38.10
2018-11-13T05:36:43.446Z,35.25
2018-11-13T05:37:16.132Z,33.42
2018-11-13T05:37:48.882Z,38.25
2018-11-13T05:38:21.542Z,35.25
2018-11-13T05:38:54.271Z,35.38
2018-11-13T05:39:26.931Z,38.90
2018-11-13T05:39:59.592Z,34.53
2018-11-13T05:40:32.327Z,36.93
2018-11-13T05:41:05.004Z,36.35
2018-11-13T05:41:37.716Z,38.70
2018-11-13T05:42:17.686Z,35.68
2018-11-13T05:42:50.345Z,31.45
2018-11-13T05:43:22.995Z,38.08
2018-11-13T05:43:55.654Z,36.35
2018-11-13T05:44:28.338Z,35.35
2018-11-13T05:45:00.999Z,36.08
2018-11-13T05:45:33.642Z,34.23
2018-11-13T05:46:06.319Z,35.08
2018-11-13T05:46:39.315Z,34.70
2018-11-13T05:47:12.016Z,36.00
2018-11-13T05:47:44.677Z,35.60
2018-11-13T05:48:17.379Z,32.67
2018-11-13T05:48:50.085Z,32.67
2018-11-13T05:49:22.770Z,34.58
2018-11-13T05:49:55.439Z,36.42
2018-11-13T05:50:28.106Z,31.55
2018-11-13T05:51:00.771Z,33.20
2018-11-13T05:51:33.488Z,33.48
2018-11-13T05:52:06.258Z,35.50
2018-11-13T05:52:39.857Z,34.70
2018-11-13T05:53:12.543Z,35.48
2018-11-13T05:53:45.191Z,32.25
2018-11-13T05:54:17.876Z,38.90
2018-11-13T05:54:50.515Z,34.48
2018-11-13T05:55:23.163Z,39.42
2018-11-13T05:55:55.828Z,33.80
2018-11-13T05:56:29.817Z,31.15
2018-11-13T05:57:03.628Z,31.07
2018-11-13T05:57:36.387Z,32.50
2018-11-13T05:58:09.059Z,32.60
2018-11-13T05:58:41.717Z,31.35
2018-11-13T05:59:14.374Z,33.63
2018-11-13T05:59:47.115Z,29.95
2018-11-13T06:00:26.249Z,31.48
2018-11-13T06:00:58.917Z,31.12
2018-11-13T06:01:31.583Z,34.23
2018-11-13T06:02:04.931Z,34.58
2018-11-13T06:02:37.789Z,34.83
2018-11-13T06:03:10.475Z,33.48
2018-11-13T06:03:43.119Z,33.42
2018-11-13T06:04:15.781Z,34.83
2018-11-13T06:04:48.439Z,29.77
2018-11-13T06:05:21.104Z,27.13
2018-11-13T06:05:53.768Z,30.30
2018-11-13T06:06:26.431Z,30.25
2018-11-13T06:06:59.095Z,33.20
2018-11-13T06:07:31.777Z,31.17
2018-11-13T06:08:04.786Z,30.45
2018-11-13T06:08:37.533Z,30.80
2018-11-13T06:09:10.141Z,29.63
2018-11-13T06:09:42.781Z,29.52
2018-11-13T06:10:15.445Z,30.88
2018-11-13T06:10:48.112Z,29.55
2018-11-13T06:11:20.763Z,27.02
2018-11-13T06:11:53.410Z,29.25
2018-11-13T06:12:26.147Z,25.43
2018-11-13T06:12:58.833Z,27.45
2018-11-13T06:13:31.473Z,28.47
2018-11-13T06:14:04.882Z,33.23
2018-11-13T06:14:37.511Z,29.95
2018-11-13T06:15:10.553Z,32.83
2018-11-13T06:15:43.194Z,26.90
2018-11-13T06:16:15.850Z,27.17
2018-11-13T06:16:48.505Z,26.50
2018-11-13T06:17:21.166Z,26.77
2018-11-13T06:17:53.863Z,29.70
2018-11-13T06:18:26.602Z,27.87
2018-11-13T06:18:59.187Z,29.65
2018-11-13T06:19:31.847Z,26.80
2018-11-13T06:20:06.159Z,27.75
2018-11-13T06:20:38.832Z,26.25
2018-11-13T06:21:11.509Z,25.17
2018-11-13T06:21:44.178Z,30.97
2018-11-13T06:22:16.830Z,28.30
2018-11-13T06:22:49.532Z,29.47
2018-11-13T06:23:22.203Z,24.63
2018-11-13T06:23:54.839Z,25.48
2018-11-13T06:24:27.463Z,24.90
2018-11-13T06:25:00.107Z,26.12
2018-11-13T06:25:32.801Z,27.22
2018-11-13T06:26:05.485Z,23.85
2018-11-13T06:26:38.154Z,25.95
2018-11-13T06:27:11.023Z,29.67
2018-11-13T06:27:44.711Z,24.00
2018-11-13T06:28:17.383Z,22.90
2018-11-13T06:28:50.040Z,27.10
2018-11-13T06:29:22.716Z,22.65
2018-11-13T06:29:55.393Z,26.15
2018-11-13T06:30:28.100Z,24.75
2018-11-13T06:31:00.829Z,23.80
2018-11-13T06:31:33.499Z,23.22
2018-11-13T06:32:06.339Z,22.65
2018-11-13T06:32:38.999Z,24.12
2018-11-13T06:33:11.712Z,22.67
2018-11-13T06:33:44.363Z,24.90
2018-11-13T06:34:17.005Z,25.75
2018-11-13T06:34:49.687Z,22.20
2018-11-13T06:35:22.347Z,21.60
2018-11-13T06:35:55.069Z,26.40
2018-11-13T06:36:27.691Z,24.10
2018-11-13T06:37:00.547Z,26.35
2018-11-13T06:37:33.223Z,24.25
2018-11-13T06:38:05.874Z,23.77
2018-11-13T06:38:38.561Z,22.55
2018-11-13T06:39:12.713Z,22.22
2018-11-13T06:39:45.370Z,24.65
2018-11-13T06:40:18.067Z,22.25
2018-11-13T06:40:50.745Z,23.05
2018-11-13T06:41:23.421Z,24.98
2018-11-13T06:41:56.108Z,25.90
2018-11-13T06:42:28.763Z,21.25
2018-11-13T06:43:01.413Z,20.52
2018-11-13T06:43:34.076Z,19.87
2018-11-13T06:44:06.765Z,20.65
2018-11-13T06:44:39.439Z,20.10
2018-11-13T06:45:16.079Z,20.97
2018-11-13T06:45:48.782Z,21.60
2018-11-13T06:46:21.448Z,21.05
2018-11-13T06:46:54.101Z,24.90
2018-11-13T06:47:26.779Z,24.25
2018-11-13T06:47:59.457Z,20.00
2018-11-13T06:48:32.126Z,19.92
2018-11-13T06:49:04.903Z,21.90
2018-11-13T06:49:37.637Z,19.15
2018-11-13T06:50:10.783Z,17.85
2018-11-13T06:50:43.489Z,19.57
2018-11-13T06:51:16.172Z,20.05
2018-11-13T06:51:48.869Z,18.85
2018-11-13T06:52:21.513Z,20.02
2018-11-13T06:52:54.198Z,18.42
2018-11-13T06:53:33.526Z,16.87
2018-11-13T06:54:17.660Z,20.97
2018-11-13T06:55:01.751Z,17.25
2018-11-13T06:55:35.424Z,16.10
2018-11-13T06:56:09.014Z,18.95
2018-11-13T06:56:41.687Z,17.48
2018-11-13T06:57:14.361Z,15.53
2018-11-13T06:57:47.039Z,16.75
2018-11-13T06:58:19.695Z,16.00
2018-11-13T06:58:52.383Z,17.12
2018-11-13T06:59:25.077Z,16.32
2018-11-13T06:59:57.801Z,15.40
2018-11-13T07:00:30.521Z,14.78
2018-11-13T07:01:03.213Z,15.75
2018-11-13T07:01:35.927Z,19.12
2018-11-13T07:02:08.579Z,14.95
2018-11-13T07:02:41.245Z,19.98
2018-11-13T07:03:13.929Z,16.90
2018-11-13T07:03:46.588Z,15.65
2018-11-13T07:04:19.232Z,15.38
2018-11-13T07:04:51.914Z,14.55
2018-11-13T07:05:24.588Z,17.25
2018-11-13T07:05:57.273Z,22.93
2018-11-13T07:06:29.962Z,14.53
2018-11-13T07:07:02.656Z,17.82
2018-11-13T07:07:35.325Z,17.92